This is the latest recevied weather packets stored in our database for station/object BMCB-30. If no packets are shown the sender has not sent any weather packets the latest 10 day(s).
| Time | Temp. | Humidity | Pressure | Rain* | Wind** | Luminosity | Snow |
|---|---|---|---|---|---|---|---|
| 1778193047 | 9.44° C | 96% | 1018.7 hPa | 0 mm | - | 0 W/m² | - |
| 1778189450 | 10° C | 95% | 1018.5 hPa | 0 mm | - | 0 W/m² | - |
| 1778185851 | 10° C | 92% | 1018.3 hPa | 0 mm | - | 0 W/m² | - |
| 1778183449 | 10.56° C | 90% | 1018 hPa | 0 mm | - | 0 W/m² | - |
| 1778179251 | 11.67° C | 87% | 1017.7 hPa | 0 mm | - | 2 W/m² | - |
| 1778178651 | 11.67° C | 87% | 1017.6 hPa | 0 mm | - | 4 W/m² | - |
| 1778174448 | 12.78° C | 69% | 1017.5 hPa | 0 mm | - | 34 W/m² | - |
| 1778173248 | 12.78° C | 68% | 1017.3 hPa | 0 mm | - | 60 W/m² | - |
| 1778172051 | 12.78° C | 70% | 1017.3 hPa | 0 mm | - | 66 W/m² | - |
| 1778169646 | 13.33° C | 66% | 1017.3 hPa | 0 mm | - | 52 W/m² | - |
| 1778166644 | 14.44° C | 64% | 1017.3 hPa | 0 mm | - | 222 W/m² | - |
| 1778166046 | 14.44° C | 65% | 1017.3 hPa | 0 mm | - | 232 W/m² | - |
| 1778161245 | 15° C | 65% | 1017.4 hPa | 0 mm | - | 536 W/m² | - |
| 1778155847 | 13.33° C | 72% | 1017.6 hPa | 0 mm | - | 226 W/m² | - |
| 1778155246 | 12.78° C | 71% | 1017.6 hPa | 0 mm | - | 202 W/m² | - |
| 1778154647 | 12.78° C | 70% | 1017.6 hPa | 0 mm | - | 182 W/m² | - |
| 1778154044 | 12.78° C | 69% | 1017.6 hPa | 0 mm | - | 168 W/m² | - |
| 1778153444 | 12.78° C | 68% | 1017.6 hPa | 0 mm | - | 178 W/m² | - |
| 1778133645 | 7.78° C | 10% | 1016.6 hPa | 0 mm | - | - | - |
| 1778130647 | 7.22° C | 10% | 1016.1 hPa | 0 mm | - | - | - |
| 1778130046 | 7.22° C | 10% | 1015.9 hPa | 0 mm | - | - | - |
| 1778126448 | 6.67° C | 10% | 1015.5 hPa | 0 mm | - | - | - |
| 1778125245 | 6.67° C | 10% | 1015.5 hPa | 0 mm | - | - | - |
| 1778124647 | 6.67° C | 10% | 1015.3 hPa | 0 mm | - | - | - |
| 1778122244 | 7.22° C | 10% | 1015.1 hPa | 0 mm | - | - | - |
* Rain latest hour (hover to see other rain measurements)
** Current wind speed in m/s (hover to see current wind gust speed)